sensor_id;sensor_type;location;lat;lon;timestamp;P1;durP1;ratioP1;P2;durP2;ratioP2
74707;SDS011;63360;50.104;8.074;2022-10-16T00:01:18;5.97;;;1.37;;
74707;SDS011;63360;50.104;8.074;2022-10-16T00:03:46;3.53;;;1.20;;
74707;SDS011;63360;50.104;8.074;2022-10-16T00:06:14;6.65;;;1.95;;
74707;SDS011;63360;50.104;8.074;2022-10-16T00:08:42;4.15;;;1.20;;
74707;SDS011;63360;50.104;8.074;2022-10-16T00:11:13;5.40;;;1.50;;
74707;SDS011;63360;50.104;8.074;2022-10-16T00:13:45;4.43;;;1.23;;
74707;SDS011;63360;50.104;8.074;2022-10-16T00:16:12;1.95;;;1.20;;
74707;SDS011;63360;50.104;8.074;2022-10-16T00:18:40;3.28;;;1.10;;
74707;SDS011;63360;50.104;8.074;2022-10-16T00:21:08;6.00;;;1.10;;
74707;SDS011;63360;50.104;8.074;2022-10-16T00:23:40;5.28;;;1.23;;
74707;SDS011;63360;50.104;8.074;2022-10-16T00:26:11;5.27;;;1.10;;
74707;SDS011;63360;50.104;8.074;2022-10-16T00:28:42;2.90;;;1.30;;
74707;SDS011;63360;50.104;8.074;2022-10-16T00:31:11;9.93;;;1.83;;
74707;SDS011;63360;50.104;8.074;2022-10-16T00:33:38;4.63;;;1.30;;
74707;SDS011;63360;50.104;8.074;2022-10-16T00:36:06;2.72;;;1.40;;
74707;SDS011;63360;50.104;8.074;2022-10-16T00:38:35;6.33;;;1.40;;
74707;SDS011;63360;50.104;8.074;2022-10-16T00:41:04;3.15;;;1.42;;
74707;SDS011;63360;50.104;8.074;2022-10-16T00:46:00;2.50;;;1.42;;
74707;SDS011;63360;50.104;8.074;2022-10-16T00:48:27;3.28;;;1.58;;
74707;SDS011;63360;50.104;8.074;2022-10-16T00:50:54;6.63;;;1.50;;
74707;SDS011;63360;50.104;8.074;2022-10-16T00:53:22;1.92;;;1.35;;
74707;SDS011;63360;50.104;8.074;2022-10-16T00:55:50;5.05;;;1.48;;
74707;SDS011;63360;50.104;8.074;2022-10-16T00:58:16;3.85;;;1.40;;
74707;SDS011;63360;50.104;8.074;2022-10-16T01:00:43;2.90;;;1.35;;
74707;SDS011;63360;50.104;8.074;2022-10-16T01:11:56;3.30;;;1.50;;
74707;SDS011;63360;50.104;8.074;2022-10-16T01:14:30;2.92;;;1.30;;
74707;SDS011;63360;50.104;8.074;2022-10-16T01:17:08;3.20;;;1.27;;
74707;SDS011;63360;50.104;8.074;2022-10-16T01:22:31;2.15;;;1.23;;
74707;SDS011;63360;50.104;8.074;2022-10-16T01:25:05;5.70;;;1.30;;
74707;SDS011;63360;50.104;8.074;2022-10-16T01:27:37;3.35;;;1.25;;
74707;SDS011;63360;50.104;8.074;2022-10-16T01:35:11;2.95;;;1.80;;
74707;SDS011;63360;50.104;8.074;2022-10-16T01:37:46;2.75;;;1.70;;
74707;SDS011;63360;50.104;8.074;2022-10-16T01:40:18;4.90;;;1.75;;
74707;SDS011;63360;50.104;8.074;2022-10-16T01:42:48;5.20;;;1.77;;
74707;SDS011;63360;50.104;8.074;2022-10-16T01:45:20;4.25;;;1.73;;
74707;SDS011;63360;50.104;8.074;2022-10-16T01:47:48;4.85;;;1.80;;
74707;SDS011;63360;50.104;8.074;2022-10-16T01:50:17;4.47;;;1.65;;
74707;SDS011;63360;50.104;8.074;2022-10-16T01:52:46;3.05;;;1.77;;
74707;SDS011;63360;50.104;8.074;2022-10-16T01:55:27;3.77;;;1.90;;
74707;SDS011;63360;50.104;8.074;2022-10-16T01:57:57;3.25;;;1.45;;
74707;SDS011;63360;50.104;8.074;2022-10-16T02:00:27;2.58;;;1.42;;
74707;SDS011;63360;50.104;8.074;2022-10-16T02:02:54;6.90;;;1.60;;
74707;SDS011;63360;50.104;8.074;2022-10-16T02:06:06;4.90;;;2.30;;
74707;SDS011;63360;50.104;8.074;2022-10-16T02:08:24;3.80;;;2.00;;
74707;SDS011;63360;50.104;8.074;2022-10-16T02:10:57;3.13;;;1.80;;
74707;SDS011;63360;50.104;8.074;2022-10-16T02:13:38;2.88;;;1.77;;
74707;SDS011;63360;50.104;8.074;2022-10-16T02:16:11;3.15;;;1.67;;
74707;SDS011;63360;50.104;8.074;2022-10-16T02:18:40;3.35;;;1.60;;
74707;SDS011;63360;50.104;8.074;2022-10-16T02:21:13;2.33;;;1.67;;
74707;SDS011;63360;50.104;8.074;2022-10-16T02:23:53;3.15;;;1.50;;
74707;SDS011;63360;50.104;8.074;2022-10-16T02:26:29;2.38;;;1.40;;
74707;SDS011;63360;50.104;8.074;2022-10-16T02:29:02;2.58;;;1.40;;
74707;SDS011;63360;50.104;8.074;2022-10-16T02:31:34;3.47;;;1.45;;
74707;SDS011;63360;50.104;8.074;2022-10-16T02:34:04;3.07;;;1.40;;
74707;SDS011;63360;50.104;8.074;2022-10-16T02:36:32;4.13;;;1.98;;
74707;SDS011;63360;50.104;8.074;2022-10-16T02:39:02;3.47;;;1.60;;
74707;SDS011;63360;50.104;8.074;2022-10-16T02:41:30;3.05;;;1.90;;
74707;SDS011;63360;50.104;8.074;2022-10-16T02:43:57;5.47;;;1.88;;
74707;SDS011;63360;50.104;8.074;2022-10-16T02:46:23;5.00;;;1.60;;
74707;SDS011;63360;50.104;8.074;2022-10-16T02:48:49;4.90;;;1.67;;
74707;SDS011;63360;50.104;8.074;2022-10-16T02:51:16;5.22;;;2.05;;
74707;SDS011;63360;50.104;8.074;2022-10-16T02:53:42;2.90;;;1.75;;
74707;SDS011;63360;50.104;8.074;2022-10-16T02:56:09;5.18;;;1.65;;
74707;SDS011;63360;50.104;8.074;2022-10-16T02:58:35;3.50;;;1.70;;
74707;SDS011;63360;50.104;8.074;2022-10-16T03:01:01;4.82;;;1.67;;
74707;SDS011;63360;50.104;8.074;2022-10-16T03:03:28;3.00;;;1.70;;
74707;SDS011;63360;50.104;8.074;2022-10-16T03:05:54;3.45;;;1.50;;
74707;SDS011;63360;50.104;8.074;2022-10-16T03:08:21;3.45;;;1.30;;
74707;SDS011;63360;50.104;8.074;2022-10-16T03:10:49;1.97;;;1.10;;
74707;SDS011;63360;50.104;8.074;2022-10-16T03:13:16;3.45;;;1.20;;
74707;SDS011;63360;50.104;8.074;2022-10-16T03:15:43;1.75;;;1.20;;
74707;SDS011;63360;50.104;8.074;2022-10-16T03:18:09;3.03;;;1.13;;
74707;SDS011;63360;50.104;8.074;2022-10-16T03:20:36;4.05;;;1.20;;
74707;SDS011;63360;50.104;8.074;2022-10-16T03:23:02;2.03;;;1.03;;
74707;SDS011;63360;50.104;8.074;2022-10-16T03:25:29;2.65;;;1.25;;
74707;SDS011;63360;50.104;8.074;2022-10-16T03:27:55;2.05;;;1.17;;
74707;SDS011;63360;50.104;8.074;2022-10-16T03:30:21;2.28;;;1.20;;
74707;SDS011;63360;50.104;8.074;2022-10-16T03:32:48;2.75;;;1.20;;
74707;SDS011;63360;50.104;8.074;2022-10-16T03:35:14;1.90;;;1.00;;
74707;SDS011;63360;50.104;8.074;2022-10-16T03:37:41;2.42;;;1.10;;
74707;SDS011;63360;50.104;8.074;2022-10-16T03:40:07;1.92;;;1.25;;
74707;SDS011;63360;50.104;8.074;2022-10-16T03:42:34;2.47;;;1.45;;
74707;SDS011;63360;50.104;8.074;2022-10-16T03:45:00;2.55;;;1.30;;
74707;SDS011;63360;50.104;8.074;2022-10-16T03:47:27;2.10;;;1.23;;
74707;SDS011;63360;50.104;8.074;2022-10-16T03:49:54;5.43;;;1.33;;
74707;SDS011;63360;50.104;8.074;2022-10-16T03:52:20;2.53;;;1.35;;
74707;SDS011;63360;50.104;8.074;2022-10-16T03:54:47;2.83;;;1.10;;
74707;SDS011;63360;50.104;8.074;2022-10-16T03:57:13;1.73;;;1.05;;
74707;SDS011;63360;50.104;8.074;2022-10-16T03:59:39;5.53;;;1.00;;
74707;SDS011;63360;50.104;8.074;2022-10-16T04:02:06;1.52;;;0.88;;
74707;SDS011;63360;50.104;8.074;2022-10-16T04:04:32;2.22;;;0.90;;
74707;SDS011;63360;50.104;8.074;2022-10-16T04:06:58;1.85;;;1.00;;
74707;SDS011;63360;50.104;8.074;2022-10-16T04:09:25;3.17;;;1.10;;
74707;SDS011;63360;50.104;8.074;2022-10-16T04:11:51;2.20;;;1.00;;
74707;SDS011;63360;50.104;8.074;2022-10-16T04:14:18;2.45;;;0.90;;
74707;SDS011;63360;50.104;8.074;2022-10-16T04:16:44;1.75;;;0.90;;
74707;SDS011;63360;50.104;8.074;2022-10-16T04:19:11;2.75;;;0.90;;
74707;SDS011;63360;50.104;8.074;2022-10-16T04:21:37;1.73;;;0.93;;
74707;SDS011;63360;50.104;8.074;2022-10-16T04:24:04;3.30;;;0.83;;
74707;SDS011;63360;50.104;8.074;2022-10-16T04:26:31;1.60;;;0.95;;
74707;SDS011;63360;50.104;8.074;2022-10-16T04:28:57;3.13;;;0.90;;
74707;SDS011;63360;50.104;8.074;2022-10-16T04:31:24;3.72;;;1.00;;
74707;SDS011;63360;50.104;8.074;2022-10-16T04:33:50;2.13;;;0.70;;
74707;SDS011;63360;50.104;8.074;2022-10-16T04:36:17;3.03;;;0.90;;
74707;SDS011;63360;50.104;8.074;2022-10-16T04:38:43;3.08;;;0.80;;
74707;SDS011;63360;50.104;8.074;2022-10-16T04:41:09;3.90;;;1.10;;
74707;SDS011;63360;50.104;8.074;2022-10-16T04:43:36;3.63;;;0.90;;
74707;SDS011;63360;50.104;8.074;2022-10-16T04:46:02;1.88;;;0.95;;
74707;SDS011;63360;50.104;8.074;2022-10-16T04:48:30;4.53;;;0.80;;
74707;SDS011;63360;50.104;8.074;2022-10-16T04:50:57;2.42;;;1.10;;
74707;SDS011;63360;50.104;8.074;2022-10-16T04:53:24;1.77;;;0.90;;
74707;SDS011;63360;50.104;8.074;2022-10-16T04:55:50;1.95;;;1.10;;
74707;SDS011;63360;50.104;8.074;2022-10-16T04:58:17;2.80;;;1.00;;
74707;SDS011;63360;50.104;8.074;2022-10-16T05:00:44;3.97;;;1.40;;
74707;SDS011;63360;50.104;8.074;2022-10-16T05:03:12;3.10;;;1.30;;
74707;SDS011;63360;50.104;8.074;2022-10-16T05:05:43;2.85;;;1.30;;
74707;SDS011;63360;50.104;8.074;2022-10-16T05:08:14;4.85;;;1.50;;
74707;SDS011;63360;50.104;8.074;2022-10-16T05:10:42;2.80;;;1.73;;
74707;SDS011;63360;50.104;8.074;2022-10-16T05:13:09;4.57;;;1.77;;
74707;SDS011;63360;50.104;8.074;2022-10-16T05:15:36;5.53;;;1.90;;
74707;SDS011;63360;50.104;8.074;2022-10-16T05:18:02;5.13;;;2.22;;
74707;SDS011;63360;50.104;8.074;2022-10-16T05:20:29;3.42;;;1.90;;
74707;SDS011;63360;50.104;8.074;2022-10-16T05:22:55;4.32;;;2.03;;
74707;SDS011;63360;50.104;8.074;2022-10-16T05:25:21;4.47;;;2.10;;
74707;SDS011;63360;50.104;8.074;2022-10-16T05:27:48;4.18;;;2.22;;
74707;SDS011;63360;50.104;8.074;2022-10-16T05:30:15;4.05;;;2.40;;
74707;SDS011;63360;50.104;8.074;2022-10-16T05:32:46;3.63;;;2.10;;
74707;SDS011;63360;50.104;8.074;2022-10-16T05:35:14;6.43;;;2.85;;
74707;SDS011;63360;50.104;8.074;2022-10-16T05:37:41;5.10;;;2.40;;
74707;SDS011;63360;50.104;8.074;2022-10-16T05:40:08;4.65;;;2.00;;
74707;SDS011;63360;50.104;8.074;2022-10-16T05:42:35;4.78;;;2.38;;
74707;SDS011;63360;50.104;8.074;2022-10-16T05:45:02;4.13;;;2.13;;
74707;SDS011;63360;50.104;8.074;2022-10-16T05:47:29;5.15;;;2.20;;
74707;SDS011;63360;50.104;8.074;2022-10-16T05:49:55;3.23;;;2.10;;
74707;SDS011;63360;50.104;8.074;2022-10-16T05:52:21;5.80;;;2.20;;
74707;SDS011;63360;50.104;8.074;2022-10-16T05:54:48;5.53;;;2.38;;
74707;SDS011;63360;50.104;8.074;2022-10-16T05:57:14;6.93;;;1.98;;
74707;SDS011;63360;50.104;8.074;2022-10-16T05:59:41;3.97;;;2.10;;
74707;SDS011;63360;50.104;8.074;2022-10-16T06:02:08;3.80;;;1.60;;
74707;SDS011;63360;50.104;8.074;2022-10-16T06:04:38;4.60;;;1.98;;
74707;SDS011;63360;50.104;8.074;2022-10-16T06:07:05;3.78;;;2.08;;
74707;SDS011;63360;50.104;8.074;2022-10-16T06:09:31;5.35;;;2.00;;
74707;SDS011;63360;50.104;8.074;2022-10-16T06:11:57;4.45;;;2.10;;
74707;SDS011;63360;50.104;8.074;2022-10-16T06:14:24;3.70;;;1.70;;
74707;SDS011;63360;50.104;8.074;2022-10-16T06:16:50;4.05;;;2.53;;
74707;SDS011;63360;50.104;8.074;2022-10-16T06:19:17;6.63;;;2.45;;
74707;SDS011;63360;50.104;8.074;2022-10-16T06:21:44;4.95;;;2.58;;
74707;SDS011;63360;50.104;8.074;2022-10-16T06:24:11;5.43;;;2.90;;
74707;SDS011;63360;50.104;8.074;2022-10-16T06:26:37;5.27;;;2.50;;
74707;SDS011;63360;50.104;8.074;2022-10-16T06:29:04;5.07;;;3.05;;
74707;SDS011;63360;50.104;8.074;2022-10-16T06:31:31;4.97;;;2.92;;
74707;SDS011;63360;50.104;8.074;2022-10-16T06:33:59;7.75;;;3.47;;
74707;SDS011;63360;50.104;8.074;2022-10-16T06:36:26;6.47;;;2.85;;
74707;SDS011;63360;50.104;8.074;2022-10-16T06:38:53;5.67;;;3.47;;
74707;SDS011;63360;50.104;8.074;2022-10-16T06:41:21;9.55;;;4.05;;
74707;SDS011;63360;50.104;8.074;2022-10-16T06:43:48;7.63;;;3.97;;
74707;SDS011;63360;50.104;8.074;2022-10-16T06:46:16;6.40;;;3.80;;
74707;SDS011;63360;50.104;8.074;2022-10-16T06:48:45;6.20;;;3.70;;
74707;SDS011;63360;50.104;8.074;2022-10-16T06:51:13;7.60;;;3.90;;
74707;SDS011;63360;50.104;8.074;2022-10-16T06:53:48;7.22;;;4.00;;
74707;SDS011;63360;50.104;8.074;2022-10-16T06:56:32;7.25;;;4.00;;
74707;SDS011;63360;50.104;8.074;2022-10-16T06:58:59;6.80;;;3.83;;
74707;SDS011;63360;50.104;8.074;2022-10-16T07:01:27;6.55;;;3.50;;
74707;SDS011;63360;50.104;8.074;2022-10-16T07:03:53;6.90;;;3.53;;
74707;SDS011;63360;50.104;8.074;2022-10-16T07:06:21;11.25;;;4.00;;
74707;SDS011;63360;50.104;8.074;2022-10-16T07:08:49;7.45;;;3.83;;
74707;SDS011;63360;50.104;8.074;2022-10-16T07:11:17;7.07;;;3.45;;
74707;SDS011;63360;50.104;8.074;2022-10-16T07:13:45;11.27;;;5.72;;
74707;SDS011;63360;50.104;8.074;2022-10-16T07:16:20;8.57;;;4.10;;
74707;SDS011;63360;50.104;8.074;2022-10-16T07:18:49;6.35;;;3.70;;
74707;SDS011;63360;50.104;8.074;2022-10-16T07:21:20;7.22;;;3.50;;
74707;SDS011;63360;50.104;8.074;2022-10-16T07:23:51;6.43;;;3.30;;
74707;SDS011;63360;50.104;8.074;2022-10-16T07:26:19;7.65;;;3.60;;
74707;SDS011;63360;50.104;8.074;2022-10-16T07:28:45;7.53;;;3.80;;
74707;SDS011;63360;50.104;8.074;2022-10-16T07:31:13;7.00;;;3.97;;
74707;SDS011;63360;50.104;8.074;2022-10-16T07:33:41;10.63;;;6.07;;
74707;SDS011;63360;50.104;8.074;2022-10-16T07:36:10;8.82;;;5.00;;
74707;SDS011;63360;50.104;8.074;2022-10-16T07:38:41;8.23;;;4.85;;
74707;SDS011;63360;50.104;8.074;2022-10-16T07:41:09;10.13;;;5.27;;
74707;SDS011;63360;50.104;8.074;2022-10-16T07:43:38;21.60;;;10.93;;
74707;SDS011;63360;50.104;8.074;2022-10-16T07:46:04;14.95;;;7.80;;
74707;SDS011;63360;50.104;8.074;2022-10-16T07:48:32;21.88;;;11.95;;
74707;SDS011;63360;50.104;8.074;2022-10-16T07:51:01;15.52;;;8.85;;
74707;SDS011;63360;50.104;8.074;2022-10-16T07:53:29;9.97;;;5.70;;
74707;SDS011;63360;50.104;8.074;2022-10-16T07:55:59;11.25;;;6.25;;
74707;SDS011;63360;50.104;8.074;2022-10-16T07:58:27;13.02;;;6.53;;
74707;SDS011;63360;50.104;8.074;2022-10-16T08:00:55;12.60;;;5.22;;
74707;SDS011;63360;50.104;8.074;2022-10-16T08:03:22;9.52;;;4.85;;
74707;SDS011;63360;50.104;8.074;2022-10-16T08:05:49;9.87;;;4.93;;
74707;SDS011;63360;50.104;8.074;2022-10-16T08:08:17;13.68;;;7.10;;
74707;SDS011;63360;50.104;8.074;2022-10-16T08:10:44;12.18;;;6.00;;
74707;SDS011;63360;50.104;8.074;2022-10-16T08:13:11;9.30;;;5.68;;
74707;SDS011;63360;50.104;8.074;2022-10-16T08:15:43;11.98;;;6.65;;
74707;SDS011;63360;50.104;8.074;2022-10-16T08:18:11;14.03;;;7.33;;
74707;SDS011;63360;50.104;8.074;2022-10-16T08:20:40;10.25;;;6.10;;
74707;SDS011;63360;50.104;8.074;2022-10-16T08:23:07;10.60;;;6.45;;
74707;SDS011;63360;50.104;8.074;2022-10-16T08:25:37;9.15;;;4.90;;
74707;SDS011;63360;50.104;8.074;2022-10-16T08:28:04;10.15;;;4.80;;
74707;SDS011;63360;50.104;8.074;2022-10-16T08:30:32;7.20;;;4.27;;
74707;SDS011;63360;50.104;8.074;2022-10-16T08:32:58;8.75;;;4.30;;
74707;SDS011;63360;50.104;8.074;2022-10-16T08:35:25;9.20;;;4.15;;
74707;SDS011;63360;50.104;8.074;2022-10-16T08:37:51;8.77;;;4.03;;
74707;SDS011;63360;50.104;8.074;2022-10-16T08:45:30;9.18;;;4.43;;
74707;SDS011;63360;50.104;8.074;2022-10-16T08:50:51;8.50;;;4.03;;
74707;SDS011;63360;50.104;8.074;2022-10-16T08:53:23;6.78;;;3.58;;
74707;SDS011;63360;50.104;8.074;2022-10-16T08:55:54;9.23;;;3.93;;
74707;SDS011;63360;50.104;8.074;2022-10-16T08:58:21;7.30;;;4.28;;
74707;SDS011;63360;50.104;8.074;2022-10-16T09:00:56;11.75;;;6.78;;
74707;SDS011;63360;50.104;8.074;2022-10-16T09:06:17;7.82;;;4.22;;
74707;SDS011;63360;50.104;8.074;2022-10-16T09:12:00;7.03;;;3.50;;
74707;SDS011;63360;50.104;8.074;2022-10-16T09:22:43;7.47;;;3.93;;
74707;SDS011;63360;50.104;8.074;2022-10-16T09:25:11;7.20;;;3.42;;
74707;SDS011;63360;50.104;8.074;2022-10-16T09:27:39;7.97;;;3.47;;
74707;SDS011;63360;50.104;8.074;2022-10-16T09:30:10;6.45;;;3.30;;
74707;SDS011;63360;50.104;8.074;2022-10-16T09:32:38;9.38;;;4.20;;
74707;SDS011;63360;50.104;8.074;2022-10-16T09:35:09;8.30;;;4.47;;
74707;SDS011;63360;50.104;8.074;2022-10-16T09:37:39;12.45;;;3.92;;
74707;SDS011;63360;50.104;8.074;2022-10-16T09:40:11;7.15;;;3.35;;
74707;SDS011;63360;50.104;8.074;2022-10-16T09:42:39;6.30;;;3.50;;
74707;SDS011;63360;50.104;8.074;2022-10-16T09:45:06;6.78;;;3.92;;
74707;SDS011;63360;50.104;8.074;2022-10-16T09:47:47;6.17;;;2.90;;
74707;SDS011;63360;50.104;8.074;2022-10-16T09:50:20;5.95;;;3.20;;
74707;SDS011;63360;50.104;8.074;2022-10-16T09:52:49;15.15;;;9.77;;
74707;SDS011;63360;50.104;8.074;2022-10-16T09:55:17;5.70;;;2.92;;
74707;SDS011;63360;50.104;8.074;2022-10-16T10:00:20;6.77;;;2.70;;
74707;SDS011;63360;50.104;8.074;2022-10-16T10:02:48;5.10;;;2.83;;
74707;SDS011;63360;50.104;8.074;2022-10-16T10:05:19;5.93;;;2.90;;
74707;SDS011;63360;50.104;8.074;2022-10-16T10:07:53;4.93;;;2.60;;
74707;SDS011;63360;50.104;8.074;2022-10-16T10:10:22;16.48;;;5.82;;
74707;SDS011;63360;50.104;8.074;2022-10-16T10:12:52;4.77;;;2.30;;
74707;SDS011;63360;50.104;8.074;2022-10-16T10:15:19;4.05;;;2.05;;
74707;SDS011;63360;50.104;8.074;2022-10-16T10:17:48;13.65;;;4.68;;
74707;SDS011;63360;50.104;8.074;2022-10-16T10:20:24;8.63;;;2.75;;
74707;SDS011;63360;50.104;8.074;2022-10-16T10:22:51;12.90;;;3.35;;
74707;SDS011;63360;50.104;8.074;2022-10-16T10:28:32;7.10;;;2.83;;
74707;SDS011;63360;50.104;8.074;2022-10-16T10:31:27;3.50;;;1.90;;
74707;SDS011;63360;50.104;8.074;2022-10-16T10:41:46;4.03;;;1.38;;
74707;SDS011;63360;50.104;8.074;2022-10-16T10:52:34;3.93;;;1.53;;
74707;SDS011;63360;50.104;8.074;2022-10-16T11:09:17;7.32;;;2.90;;
74707;SDS011;63360;50.104;8.074;2022-10-16T11:11:47;6.35;;;2.53;;
74707;SDS011;63360;50.104;8.074;2022-10-16T11:14:20;5.80;;;2.80;;
74707;SDS011;63360;50.104;8.074;2022-10-16T11:22:13;4.82;;;2.78;;
74707;SDS011;63360;50.104;8.074;2022-10-16T11:24:48;4.88;;;3.00;;
74707;SDS011;63360;50.104;8.074;2022-10-16T11:27:23;5.13;;;3.08;;
74707;SDS011;63360;50.104;8.074;2022-10-16T11:30:01;6.45;;;3.60;;
74707;SDS011;63360;50.104;8.074;2022-10-16T11:32:34;5.47;;;3.60;;
74707;SDS011;63360;50.104;8.074;2022-10-16T11:35:13;8.57;;;4.43;;
74707;SDS011;63360;50.104;8.074;2022-10-16T11:37:46;8.30;;;4.22;;
74707;SDS011;63360;50.104;8.074;2022-10-16T11:40:22;8.02;;;4.30;;
74707;SDS011;63360;50.104;8.074;2022-10-16T11:42:54;7.45;;;3.80;;
74707;SDS011;63360;50.104;8.074;2022-10-16T11:47:58;8.27;;;4.32;;
74707;SDS011;63360;50.104;8.074;2022-10-16T11:50:35;6.82;;;4.10;;
74707;SDS011;63360;50.104;8.074;2022-10-16T11:56:31;7.75;;;3.22;;
74707;SDS011;63360;50.104;8.074;2022-10-16T11:59:03;6.03;;;3.07;;
74707;SDS011;63360;50.104;8.074;2022-10-16T12:01:44;6.68;;;3.28;;
74707;SDS011;63360;50.104;8.074;2022-10-16T12:07:04;5.95;;;2.90;;
74707;SDS011;63360;50.104;8.074;2022-10-16T12:09:39;6.32;;;3.05;;
74707;SDS011;63360;50.104;8.074;2022-10-16T12:17:52;6.15;;;2.80;;
74707;SDS011;63360;50.104;8.074;2022-10-16T12:20:20;7.07;;;2.97;;
74707;SDS011;63360;50.104;8.074;2022-10-16T12:22:55;5.38;;;2.63;;
74707;SDS011;63360;50.104;8.074;2022-10-16T12:25:25;4.80;;;2.93;;
74707;SDS011;63360;50.104;8.074;2022-10-16T12:30:38;5.20;;;2.95;;
74707;SDS011;63360;50.104;8.074;2022-10-16T12:33:23;6.35;;;3.20;;
74707;SDS011;63360;50.104;8.074;2022-10-16T12:35:55;4.25;;;2.92;;
74707;SDS011;63360;50.104;8.074;2022-10-16T12:38:30;5.50;;;3.60;;
74707;SDS011;63360;50.104;8.074;2022-10-16T12:41:05;4.82;;;3.13;;
74707;SDS011;63360;50.104;8.074;2022-10-16T12:48:38;4.72;;;2.95;;
74707;SDS011;63360;50.104;8.074;2022-10-16T12:59:16;4.38;;;2.70;;
74707;SDS011;63360;50.104;8.074;2022-10-16T13:02:08;6.18;;;2.80;;
74707;SDS011;63360;50.104;8.074;2022-10-16T13:10:40;4.30;;;2.45;;
74707;SDS011;63360;50.104;8.074;2022-10-16T13:15:55;5.82;;;2.40;;
74707;SDS011;63360;50.104;8.074;2022-10-16T13:24:23;4.38;;;2.30;;
74707;SDS011;63360;50.104;8.074;2022-10-16T13:29:42;4.35;;;2.42;;
74707;SDS011;63360;50.104;8.074;2022-10-16T13:32:09;5.80;;;2.80;;
74707;SDS011;63360;50.104;8.074;2022-10-16T13:34:44;4.28;;;2.85;;
74707;SDS011;63360;50.104;8.074;2022-10-16T13:37:16;4.50;;;2.35;;
74707;SDS011;63360;50.104;8.074;2022-10-16T13:39:44;4.03;;;2.40;;
74707;SDS011;63360;50.104;8.074;2022-10-16T13:42:12;5.68;;;2.70;;
74707;SDS011;63360;50.104;8.074;2022-10-16T13:44:43;4.23;;;2.40;;
74707;SDS011;63360;50.104;8.074;2022-10-16T13:49:44;7.82;;;3.08;;
74707;SDS011;63360;50.104;8.074;2022-10-16T13:52:20;9.80;;;2.65;;
74707;SDS011;63360;50.104;8.074;2022-10-16T13:54:47;4.57;;;2.72;;
74707;SDS011;63360;50.104;8.074;2022-10-16T13:57:14;4.87;;;2.87;;
74707;SDS011;63360;50.104;8.074;2022-10-16T13:59:52;6.45;;;2.85;;
74707;SDS011;63360;50.104;8.074;2022-10-16T14:02:26;6.75;;;3.40;;
74707;SDS011;63360;50.104;8.074;2022-10-16T14:04:56;6.72;;;3.30;;
74707;SDS011;63360;50.104;8.074;2022-10-16T14:07:25;7.70;;;3.72;;
74707;SDS011;63360;50.104;8.074;2022-10-16T14:09:54;6.40;;;3.47;;
74707;SDS011;63360;50.104;8.074;2022-10-16T14:12:21;5.75;;;3.20;;
74707;SDS011;63360;50.104;8.074;2022-10-16T14:14:53;6.47;;;3.42;;
74707;SDS011;63360;50.104;8.074;2022-10-16T14:17:22;7.40;;;3.20;;
74707;SDS011;63360;50.104;8.074;2022-10-16T14:19:54;5.50;;;2.55;;
74707;SDS011;63360;50.104;8.074;2022-10-16T14:22:29;5.43;;;3.00;;
74707;SDS011;63360;50.104;8.074;2022-10-16T14:24:59;7.70;;;2.90;;
74707;SDS011;63360;50.104;8.074;2022-10-16T14:30:17;5.22;;;2.55;;
74707;SDS011;63360;50.104;8.074;2022-10-16T14:32:55;4.70;;;2.60;;
74707;SDS011;63360;50.104;8.074;2022-10-16T14:35:24;6.67;;;2.67;;
74707;SDS011;63360;50.104;8.074;2022-10-16T14:37:52;7.85;;;2.90;;
74707;SDS011;63360;50.104;8.074;2022-10-16T14:40:22;4.35;;;2.50;;
74707;SDS011;63360;50.104;8.074;2022-10-16T14:42:50;4.55;;;2.20;;
74707;SDS011;63360;50.104;8.074;2022-10-16T14:45:21;6.25;;;2.60;;
74707;SDS011;63360;50.104;8.074;2022-10-16T14:47:52;5.87;;;2.77;;
74707;SDS011;63360;50.104;8.074;2022-10-16T14:50:21;4.22;;;2.47;;
74707;SDS011;63360;50.104;8.074;2022-10-16T14:52:48;4.10;;;2.50;;
74707;SDS011;63360;50.104;8.074;2022-10-16T14:55:15;4.20;;;2.20;;
74707;SDS011;63360;50.104;8.074;2022-10-16T14:57:42;3.45;;;2.30;;
74707;SDS011;63360;50.104;8.074;2022-10-16T15:00:19;7.13;;;2.63;;
74707;SDS011;63360;50.104;8.074;2022-10-16T15:02:48;4.40;;;2.60;;
74707;SDS011;63360;50.104;8.074;2022-10-16T15:07:46;5.15;;;2.50;;
74707;SDS011;63360;50.104;8.074;2022-10-16T15:10:13;6.88;;;2.90;;
74707;SDS011;63360;50.104;8.074;2022-10-16T15:12:40;4.73;;;2.83;;
74707;SDS011;63360;50.104;8.074;2022-10-16T15:15:15;4.43;;;2.60;;
74707;SDS011;63360;50.104;8.074;2022-10-16T15:17:47;7.18;;;2.95;;
74707;SDS011;63360;50.104;8.074;2022-10-16T15:20:14;7.32;;;2.42;;
74707;SDS011;63360;50.104;8.074;2022-10-16T15:22:40;6.18;;;3.35;;
74707;SDS011;63360;50.104;8.074;2022-10-16T15:25:10;4.93;;;2.70;;
74707;SDS011;63360;50.104;8.074;2022-10-16T15:28:03;8.85;;;3.08;;
74707;SDS011;63360;50.104;8.074;2022-10-16T15:30:30;7.28;;;3.10;;
74707;SDS011;63360;50.104;8.074;2022-10-16T15:32:56;5.25;;;3.15;;
74707;SDS011;63360;50.104;8.074;2022-10-16T15:35:23;6.57;;;3.17;;
74707;SDS011;63360;50.104;8.074;2022-10-16T15:37:50;5.23;;;3.23;;
74707;SDS011;63360;50.104;8.074;2022-10-16T15:40:17;5.47;;;3.00;;
74707;SDS011;63360;50.104;8.074;2022-10-16T15:42:44;7.63;;;3.45;;
74707;SDS011;63360;50.104;8.074;2022-10-16T15:45:11;6.18;;;3.03;;
74707;SDS011;63360;50.104;8.074;2022-10-16T15:47:40;8.07;;;3.40;;
74707;SDS011;63360;50.104;8.074;2022-10-16T15:50:11;6.20;;;2.73;;
74707;SDS011;63360;50.104;8.074;2022-10-16T15:52:39;6.93;;;3.15;;
74707;SDS011;63360;50.104;8.074;2022-10-16T15:55:08;9.65;;;3.50;;
74707;SDS011;63360;50.104;8.074;2022-10-16T15:57:36;5.13;;;3.30;;
74707;SDS011;63360;50.104;8.074;2022-10-16T16:00:07;6.90;;;3.53;;
74707;SDS011;63360;50.104;8.074;2022-10-16T16:02:37;6.43;;;4.13;;
74707;SDS011;63360;50.104;8.074;2022-10-16T16:05:04;8.70;;;4.90;;
74707;SDS011;63360;50.104;8.074;2022-10-16T16:07:32;7.97;;;4.50;;
74707;SDS011;63360;50.104;8.074;2022-10-16T16:10:00;6.60;;;4.22;;
74707;SDS011;63360;50.104;8.074;2022-10-16T16:12:27;6.80;;;3.95;;
74707;SDS011;63360;50.104;8.074;2022-10-16T16:14:54;6.90;;;3.93;;
74707;SDS011;63360;50.104;8.074;2022-10-16T16:17:20;7.95;;;4.20;;
74707;SDS011;63360;50.104;8.074;2022-10-16T16:19:46;6.28;;;4.40;;
74707;SDS011;63360;50.104;8.074;2022-10-16T16:22:13;6.55;;;4.00;;
74707;SDS011;63360;50.104;8.074;2022-10-16T16:24:39;9.10;;;4.28;;
74707;SDS011;63360;50.104;8.074;2022-10-16T16:27:05;6.73;;;4.43;;
74707;SDS011;63360;50.104;8.074;2022-10-16T16:29:32;11.75;;;4.57;;
74707;SDS011;63360;50.104;8.074;2022-10-16T16:31:59;9.25;;;4.75;;
74707;SDS011;63360;50.104;8.074;2022-10-16T16:34:26;7.32;;;4.20;;
74707;SDS011;63360;50.104;8.074;2022-10-16T16:36:54;7.90;;;4.20;;
74707;SDS011;63360;50.104;8.074;2022-10-16T16:39:21;10.47;;;5.17;;
74707;SDS011;63360;50.104;8.074;2022-10-16T16:41:48;11.23;;;5.00;;
74707;SDS011;63360;50.104;8.074;2022-10-16T16:44:15;7.60;;;4.43;;
74707;SDS011;63360;50.104;8.074;2022-10-16T16:46:42;8.00;;;4.63;;
74707;SDS011;63360;50.104;8.074;2022-10-16T16:49:11;8.27;;;4.72;;
74707;SDS011;63360;50.104;8.074;2022-10-16T16:51:38;9.17;;;5.07;;
74707;SDS011;63360;50.104;8.074;2022-10-16T16:54:06;7.30;;;4.57;;
74707;SDS011;63360;50.104;8.074;2022-10-16T16:56:33;7.80;;;4.55;;
74707;SDS011;63360;50.104;8.074;2022-10-16T16:59:00;9.40;;;5.10;;
74707;SDS011;63360;50.104;8.074;2022-10-16T17:01:27;10.98;;;5.57;;
74707;SDS011;63360;50.104;8.074;2022-10-16T17:03:55;9.13;;;4.90;;
74707;SDS011;63360;50.104;8.074;2022-10-16T17:06:27;11.30;;;5.20;;
74707;SDS011;63360;50.104;8.074;2022-10-16T17:08:57;13.13;;;7.35;;
74707;SDS011;63360;50.104;8.074;2022-10-16T17:11:25;9.75;;;5.72;;
74707;SDS011;63360;50.104;8.074;2022-10-16T17:13:53;12.63;;;5.55;;
74707;SDS011;63360;50.104;8.074;2022-10-16T17:16:32;9.80;;;5.70;;